Time;durP1;ratioP1;P1;durP2;ratioP2;P2;SDS_P1;SDS_P2;PMS_P1;PMS_P2;Temp;Humidity;BMP_temperature;BMP_pressure;BME280_temperature;BME280_humidity;BME280_pressure;Samples;Min_cycle;Max_cycle;Signal;HPM_P1;HPM_P2
2021/09/11 00:00:28;;;;;;;22.92;16.40;;;;;;;17.29;100.00;101302.09;10110445;28;20460;-70
2021/09/11 00:05:25;;;;;;;23.00;16.02;;;;;;;17.30;100.00;101300.91;10104147;28;20043;-70
2021/09/11 00:10:21;;;;;;;24.25;17.42;;;;;;;17.32;100.00;101295.84;10103504;28;20079;-71
2021/09/11 00:15:19;;;;;;;28.02;17.23;;;;;;;17.34;100.00;101296.31;10102335;28;20570;-73
2021/09/11 00:20:15;;;;;;;27.35;17.23;;;;;;;17.35;100.00;101295.13;10105218;28;20109;-73
2021/09/11 00:25:12;;;;;;;24.27;17.10;;;;;;;17.35;100.00;101300.66;10108932;28;20058;-73
2021/09/11 00:30:09;;;;;;;29.08;16.02;;;;;;;17.34;100.00;101299.06;10106132;28;20503;-73
2021/09/11 00:35:06;;;;;;;30.88;17.08;;;;;;;17.35;100.00;101299.88;10100238;28;20467;-72
2021/09/11 00:40:03;;;;;;;29.30;19.25;;;;;;;17.34;100.00;101304.59;10106244;28;20652;-73
2021/09/11 00:45:00;;;;;;;25.02;16.35;;;;;;;17.35;100.00;101311.72;10101221;28;20059;-73
2021/09/11 00:49:57;;;;;;;24.42;17.17;;;;;;;17.35;100.00;101295.13;10107983;28;20522;-73
2021/09/11 00:54:53;;;;;;;26.35;17.55;;;;;;;17.36;100.00;101301.47;10105658;28;20047;-73
2021/09/11 00:59:50;;;;;;;23.63;18.23;;;;;;;17.38;100.00;101294.47;10106956;28;20639;-71
2021/09/11 01:04:46;;;;;;;24.92;18.08;;;;;;;17.36;100.00;101291.25;10096082;28;20050;-72
2021/09/11 01:09:44;;;;;;;26.58;19.95;;;;;;;17.33;100.00;101291.91;10099963;28;20085;-72
2021/09/11 01:14:40;;;;;;;24.98;19.42;;;;;;;17.34;100.00;101289.97;10108931;28;20043;-72
2021/09/11 01:19:38;;;;;;;26.90;21.30;;;;;;;17.37;100.00;101287.31;10107541;28;20078;-72
2021/09/11 01:24:34;;;;;;;29.00;19.52;;;;;;;17.36;100.00;101291.25;10103795;28;20081;-71
2021/09/11 01:29:31;;;;;;;26.70;20.67;;;;;;;17.38;100.00;101300.00;10100116;28;20047;-71
2021/09/11 01:34:30;;;;;;;29.38;21.13;;;;;;;17.31;100.00;101307.25;10105850;28;20129;-72
2021/09/11 01:39:27;;;;;;;27.73;19.00;;;;;;;17.32;100.00;101306.09;10097163;28;20538;-72
2021/09/11 01:44:23;;;;;;;24.95;19.08;;;;;;;17.23;100.00;101320.06;10103680;28;20090;-70
2021/09/11 01:49:20;;;;;;;26.88;20.23;;;;;;;17.18;100.00;101323.06;10097694;28;20130;-71
2021/09/11 01:54:16;;;;;;;25.55;20.75;;;;;;;17.12;100.00;101330.75;10104258;28;20097;-72
2021/09/11 01:59:12;;;;;;;30.08;22.55;;;;;;;17.14;100.00;101327.66;10101188;28;20547;-72
2021/09/11 02:04:09;;;;;;;31.80;22.30;;;;;;;17.14;100.00;101327.66;10101818;28;20443;-72
2021/09/11 02:09:05;;;;;;;35.45;24.60;;;;;;;17.13;100.00;101328.84;10100683;28;20046;-71
2021/09/11 02:14:02;;;;;;;39.30;25.85;;;;;;;17.13;100.00;101320.53;10105000;28;20043;-71
2021/09/11 02:18:58;;;;;;;35.75;25.10;;;;;;;17.06;100.00;101331.34;10097938;28;20102;-70
2021/09/11 02:23:55;;;;;;;38.92;26.45;;;;;;;17.12;100.00;101341.03;10107544;28;20162;-72
2021/09/11 02:28:52;;;;;;;37.63;25.95;;;;;;;17.10;100.00;101332.25;10104163;28;20499;-71
2021/09/11 02:33:48;;;;;;;40.10;26.52;;;;;;;17.10;100.00;101337.78;10099217;28;20114;-71
2021/09/11 02:38:45;;;;;;;38.65;25.30;;;;;;;17.12;100.00;101335.50;10098178;28;20142;-72
2021/09/11 02:43:42;;;;;;;36.55;24.63;;;;;;;17.15;100.00;101340.31;10107085;28;20126;-72
2021/09/11 02:48:39;;;;;;;44.40;27.83;;;;;;;17.18;100.00;101345.16;10104818;28;20158;-71
2021/09/11 02:53:35;;;;;;;39.08;26.10;;;;;;;17.11;100.00;101344.94;10109793;28;20035;-69
2021/09/11 02:58:32;;;;;;;51.85;32.13;;;;;;;17.06;100.00;101347.91;10113490;28;20047;-71
2021/09/11 03:03:28;;;;;;;47.28;29.67;;;;;;;17.03;100.00;101344.72;10109995;28;20038;-71
2021/09/11 03:08:25;;;;;;;52.58;32.90;;;;;;;17.03;100.00;101346.66;10102918;28;20476;-71
2021/09/11 03:13:22;;;;;;;63.13;34.63;;;;;;;17.00;100.00;101350.13;10109896;28;20050;-70
2021/09/11 03:18:18;;;;;;;52.97;32.83;;;;;;;17.03;100.00;101344.72;10106833;28;20158;-68
2021/09/11 03:23:15;;;;;;;57.28;33.05;;;;;;;16.97;100.00;101348.84;10109471;28;20550;-72
2021/09/11 03:28:11;;;;;;;52.55;31.70;;;;;;;16.99;100.00;101360.38;10109155;28;20133;-69
2021/09/11 03:33:07;;;;;;;57.20;31.63;;;;;;;16.93;100.00;101345.16;10109340;28;20066;-70
2021/09/11 03:38:04;;;;;;;60.03;33.47;;;;;;;16.97;100.00;101351.63;10098261;28;20108;-72
2021/09/11 03:43:00;;;;;;;54.10;33.15;;;;;;;16.98;100.00;101347.69;10101083;28;20085;-71
2021/09/11 03:47:57;;;;;;;57.05;33.33;;;;;;;17.03;100.00;101344.72;10096723;28;21867;-69
2021/09/11 03:52:53;;;;;;;60.97;33.33;;;;;;;17.01;100.00;101341.50;10107433;28;20101;-71
2021/09/11 03:57:50;;;;;;;56.28;30.48;;;;;;;16.98;100.00;101347.69;10101338;28;20066;-71
2021/09/11 04:02:46;;;;;;;54.33;29.58;;;;;;;17.02;100.00;101348.63;10108790;28;20125;-72
2021/09/11 04:07:44;;;;;;;60.33;29.90;;;;;;;17.03;100.00;101353.00;10112379;28;20051;-70
2021/09/11 04:12:40;;;;;;;64.03;31.73;;;;;;;17.03;100.00;101355.78;10104149;28;20450;-72
2021/09/11 04:17:37;;;;;;;59.65;31.92;;;;;;;17.09;100.00;101352.78;10106531;28;20046;-73
2021/09/11 04:22:33;;;;;;;67.13;34.60;;;;;;;17.12;100.00;101358.41;10105352;28;20043;-72
2021/09/11 04:27:30;;;;;;;74.28;37.47;;;;;;;17.13;100.00;101354.50;10111854;28;20043;-71
2021/09/11 04:32:26;;;;;;;79.60;38.97;;;;;;;17.09;100.00;101358.31;10107455;28;20510;-72
2021/09/11 04:37:23;;;;;;;80.05;38.70;;;;;;;17.11;100.00;101358.75;10110151;28;20085;-72
2021/09/11 04:42:19;;;;;;;79.28;38.85;;;;;;;17.09;100.00;101358.31;10107733;28;20142;-72
2021/09/11 04:47:16;;;;;;;95.50;43.33;;;;;;;17.08;100.00;101363.03;10107555;28;20554;-71
2021/09/11 04:52:12;;;;;;;86.85;41.45;;;;;;;17.10;100.00;101362.66;10100350;28;20109;-72
2021/09/11 04:57:08;;;;;;;93.82;41.92;;;;;;;17.10;100.00;101359.91;10101709;28;20149;-71
2021/09/11 05:02:06;;;;;;;96.90;43.88;;;;;;;17.13;100.00;101370.28;10097289;28;20043;-71
2021/09/11 05:07:03;;;;;;;92.75;42.15;;;;;;;17.18;100.00;101364.50;10104250;28;20435;-72
2021/09/11 05:12:04;;;;;;;96.60;43.05;;;;;;;17.17;100.00;101360.13;10100946;28;20109;-72
2021/09/11 05:17:00;;;;;;;103.85;46.17;;;;;;;17.17;100.00;101362.88;10099279;28;20102;-71
2021/09/11 05:21:57;;;;;;;89.40;41.53;;;;;;;17.18;100.00;101356.22;10102174;28;20078;-72
2021/09/11 05:26:53;;;;;;;98.15;43.72;;;;;;;17.19;100.00;101357.81;10104649;28;20575;-71
2021/09/11 05:31:50;;;;;;;97.28;41.55;;;;;;;17.19;100.00;101363.34;10106340;28;20077;-72
2021/09/11 05:36:48;;;;;;;117.15;47.58;;;;;;;17.16;100.00;101366.81;10097050;28;20046;-71
2021/09/11 05:41:44;;;;;;;107.80;44.88;;;;;;;17.20;100.00;101371.28;10101774;28;20046;-72
2021/09/11 05:46:41;;;;;;;104.60;45.72;;;;;;;17.19;100.00;101368.88;10097966;28;20138;-72
2021/09/11 05:51:37;;;;;;;121.65;48.53;;;;;;;17.22;100.00;101368.19;10100707;28;20059;-71
2021/09/11 05:56:33;;;;;;;123.22;47.95;;;;;;;17.24;100.00;101376.91;10101267;28;20089;-72
2021/09/11 06:01:30;;;;;;;119.57;48.58;;;;;;;17.30;100.00;101381.06;10107592;28;20446;-72
2021/09/11 06:06:27;;;;;;;123.97;50.38;;;;;;;17.33;100.00;101380.34;10098585;28;20518;-72
2021/09/11 06:11:23;;;;;;;124.32;49.33;;;;;;;17.38;100.00;101393.13;10102050;28;20089;-71
2021/09/11 06:16:20;;;;;;;109.32;45.65;;;;;;;17.39;100.00;101395.56;10103576;28;20090;-73
2021/09/11 06:21:16;;;;;;;105.57;43.40;;;;;;;17.36;100.00;101390.75;10096055;28;20050;-73
2021/09/11 06:26:13;;;;;;;99.32;46.00;;;;;;;17.33;100.00;101394.19;10086540;28;20135;-72
2021/09/11 06:31:09;;;;;;;90.65;46.80;;;;;;;17.36;100.00;101393.50;10088097;28;20082;-71
2021/09/11 06:36:10;;;;;;;97.93;48.10;;;;;;;17.36;100.00;101393.50;10094987;28;20043;-73
2021/09/11 06:41:06;;;;;;;81.30;42.42;;;;;;;17.40;100.00;101390.84;10082741;28;20051;-72
2021/09/11 06:46:03;;;;;;;81.82;43.65;;;;;;;17.46;100.00;101386.69;10090969;28;20486;-72
2021/09/11 06:51:00;;;;;;;85.70;42.53;;;;;;;17.52;100.00;101390.84;10097118;28;20042;-73
2021/09/11 06:55:56;;;;;;;91.85;46.10;;;;;;;17.56;100.00;101400.00;10101537;28;20046;-72
2021/09/11 07:00:53;;;;;;;81.40;43.58;;;;;;;17.65;100.00;101394.34;10105219;28;20043;-74
2021/09/11 07:05:49;;;;;;;83.25;47.05;;;;;;;17.71;100.00;101400.44;10089688;28;20050;-70
2021/09/11 07:10:46;;;;;;;88.22;45.15;;;;;;;17.78;100.00;101395.94;10087142;28;20162;-71
2021/09/11 07:15:43;;;;;;;74.75;43.47;;;;;;;17.83;100.00;101406.78;10090480;28;20055;-70
2021/09/11 07:20:40;;;;;;;75.57;42.03;;;;;;;17.97;100.00;101397.28;10086399;28;20054;-71
2021/09/11 07:25:36;;;;;;;75.72;41.10;;;;;;;18.13;100.00;101403.69;10099005;28;20074;-69
2021/09/11 07:30:35;;;;;;;66.00;38.08;;;;;;;18.31;100.00;101406.97;10111499;28;20066;-70
2021/09/11 07:35:32;;;;;;;58.60;34.85;;;;;;;18.27;100.00;101412.38;10098655;28;20151;-70
2021/09/11 07:40:28;;;;;;;51.70;34.22;;;;;;;18.25;100.00;101409.16;10104061;28;20046;-73
2021/09/11 07:45:25;;;;;;;49.38;31.77;;;;;;;18.22;100.00;101412.63;10094569;28;20046;-72
2021/09/11 07:50:26;;;;;;;53.50;33.55;;;;;;;18.21;100.00;101408.25;10098359;28;20074;-70
2021/09/11 07:55:23;;;;;;;58.53;35.78;;;;;;;18.27;100.00;101409.63;10087251;28;20046;-70
2021/09/11 08:00:20;;;;;;;54.53;34.90;;;;;;;18.26;100.00;101416.31;10077328;28;20501;-69
2021/09/11 08:05:16;;;;;;;52.17;32.22;;;;;;;18.21;99.62;101412.97;10099495;28;20105;-70
2021/09/11 08:10:13;;;;;;;48.80;32.20;;;;;;;18.21;99.38;101419.31;10087974;28;20442;-71
2021/09/11 08:15:10;;;;;;;51.20;33.00;;;;;;;18.20;98.97;101422.47;10090479;28;20158;-71
2021/09/11 08:20:07;;;;;;;48.10;31.88;;;;;;;18.20;99.36;101423.25;10086659;28;20089;-70
2021/09/11 08:25:04;;;;;;;48.33;31.20;;;;;;;18.23;99.13;101428.06;10092230;28;20051;-71
2021/09/11 08:30:01;;;;;;;48.50;31.88;;;;;;;18.24;99.62;101426.94;10086433;28;20134;-71
2021/09/11 08:34:57;;;;;;;45.83;28.67;;;;;;;18.26;99.43;101432.94;10089477;28;20039;-71
2021/09/11 08:39:54;;;;;;;47.85;29.80;;;;;;;18.26;99.12;101432.94;10087991;28;20047;-70
2021/09/11 08:44:51;;;;;;;45.13;30.15;;;;;;;18.23;98.61;101439.16;10086837;28;20138;-70
2021/09/11 08:49:48;;;;;;;45.72;30.23;;;;;;;18.25;98.49;101439.59;10093284;28;20105;-68
2021/09/11 08:54:44;;;;;;;49.30;31.85;;;;;;;18.24;98.35;101451.84;10084075;28;20042;-70
2021/09/11 08:59:41;;;;;;;53.00;32.03;;;;;;;18.21;97.91;101469.13;10093831;28;20055;-70
2021/09/11 09:04:56;;;;;;;54.85;34.85;;;;;;;18.18;98.39;101464.31;10104668;28;20078;-71
2021/09/11 09:09:57;;;;;;;53.38;34.50;;;;;;;18.17;98.30;101468.25;10088187;28;20047;-69
2021/09/11 09:15:11;;;;;;;58.47;34.97;;;;;;;18.08;98.43;101470.34;10088756;28;20626;-66
2021/09/11 09:20:10;;;;;;;57.47;34.90;;;;;;;18.13;98.27;101467.34;10085171;28;20546;-69
2021/09/11 09:25:20;;;;;;;57.90;35.78;;;;;;;18.19;98.41;101471.44;10092284;28;20142;-68
2021/09/11 09:30:22;;;;;;;60.38;35.97;;;;;;;18.24;99.07;101468.44;10088454;28;20076;-69
2021/09/11 09:35:24;;;;;;;59.05;35.80;;;;;;;18.27;99.26;101462.19;10087787;28;20039;-68
2021/09/11 09:40:43;;;;;;;60.28;34.72;;;;;;;18.27;98.29;101461.41;10085983;28;20059;-69
2021/09/11 09:45:42;;;;;;;54.80;34.60;;;;;;;18.38;97.83;101456.16;10080494;28;20053;-67
2021/09/11 09:50:41;;;;;;;52.55;34.15;;;;;;;18.60;97.86;101458.34;10090232;28;20038;-68
2021/09/11 09:55:42;;;;;;;57.10;36.83;;;;;;;18.74;96.10;101449.63;10079147;28;20146;-68
2021/09/11 10:00:39;;;;;;;60.05;38.60;;;;;;;18.94;96.23;101461.66;10088505;28;20574;-69
2021/09/11 10:05:38;;;;;;;49.17;34.67;;;;;;;19.08;95.03;101448.16;10091402;28;20047;-69
2021/09/11 10:10:40;;;;;;;50.42;33.33;;;;;;;19.07;94.28;101451.25;10091684;28;20470;-68
2021/09/11 10:15:49;;;;;;;45.90;31.38;;;;;;;19.04;93.73;101450.03;10088161;28;20488;-67
2021/09/11 10:21:10;;;;;;;43.00;29.15;;;;;;;19.06;91.99;101436.59;10092655;28;20078;-69
2021/09/11 10:26:26;;;;;;;39.72;29.42;;;;;;;19.42;91.56;101437.44;10097896;28;20051;-68
2021/09/11 10:31:23;;;;;;;34.40;25.98;;;;;;;19.60;89.03;101440.63;10099263;28;20055;-66
2021/09/11 10:36:42;;;;;;;33.35;22.73;;;;;;;19.40;84.75;101434.25;10088329;28;20267;-68
2021/09/11 10:41:39;;;;;;;28.35;19.13;;;;;;;19.51;85.28;101438.06;10092794;28;20427;-69
2021/09/11 10:46:53;;;;;;;33.08;20.73;;;;;;;19.35;83.06;101426.19;10094781;28;20830;-69
2021/09/11 10:52:03;;;;;;;30.30;20.70;;;;;;;19.30;83.47;101426.47;10098249;28;20098;-68
2021/09/11 10:56:59;;;;;;;34.97;21.13;;;;;;;19.49;84.66;101426.50;10095589;28;20082;-69
2021/09/11 11:02:11;;;;;;;38.00;23.05;;;;;;;19.52;83.13;101425.00;10108143;28;20047;-69
2021/09/11 11:07:10;;;;;;;33.03;20.70;;;;;;;19.58;83.87;101411.66;10099251;28;20102;-69
2021/09/11 11:12:08;;;;;;;34.03;22.35;;;;;;;19.53;82.25;101418.28;10103017;28;20044;-69
2021/09/11 11:17:05;;;;;;;29.58;20.27;;;;;;;19.42;82.03;101412.50;10103727;28;20805;-68
2021/09/11 11:22:05;;;;;;;32.60;20.70;;;;;;;19.24;81.95;101414.88;10106487;28;20043;-69
2021/09/11 11:27:07;;;;;;;24.55;17.60;;;;;;;19.17;81.78;101408.34;10099553;28;20558;-69
2021/09/11 11:32:06;;;;;;;21.67;15.50;;;;;;;19.31;82.18;101414.25;10104288;28;20046;-69
2021/09/11 11:37:04;;;;;;;21.02;14.35;;;;;;;19.60;79.89;101414.88;10101799;28;20129;-68
2021/09/11 11:42:07;;;;;;;15.93;13.05;;;;;;;20.13;77.85;101415.22;10091739;28;20053;-66
2021/09/11 11:47:28;;;;;;;14.90;10.48;;;;;;;20.18;74.92;101423.25;10106290;28;20042;-68
2021/09/11 11:52:26;;;;;;;14.73;10.88;;;;;;;19.87;74.07;101413.91;10095179;28;20111;-69
2021/09/11 11:57:23;;;;;;;13.88;10.48;;;;;;;19.75;75.16;101400.97;10104062;28;20085;-68
2021/09/11 12:02:23;;;;;;;12.90;10.38;;;;;;;19.69;76.63;101410.75;10106105;28;20085;-69
2021/09/11 12:07:31;;;;;;;17.60;11.23;;;;;;;19.66;76.94;101407.88;10101258;28;20054;-67
2021/09/11 12:12:49;;;;;;;15.23;11.77;;;;;;;19.61;76.61;101399.81;10101715;28;20043;-69
2021/09/11 12:18:09;;;;;;;14.35;10.70;;;;;;;19.59;77.94;101391.06;10105675;28;20837;-68
2021/09/11 12:23:12;;;;;;;14.60;10.73;;;;;;;19.55;77.60;101391.78;10098343;28;20035;-68
2021/09/11 12:28:29;;;;;;;13.52;8.95;;;;;;;19.61;76.01;101383.19;10098511;28;20554;-69
2021/09/11 12:33:26;;;;;;;14.80;10.65;;;;;;;19.76;76.03;101376.81;10104856;28;20043;-68
2021/09/11 12:38:38;;;;;;;13.07;9.25;;;;;;;20.14;76.30;101389.06;10104032;28;20113;-69
2021/09/11 12:43:35;;;;;;;12.47;9.23;;;;;;;20.65;74.55;101386.06;10099767;28;20044;-69
2021/09/11 12:48:31;;;;;;;9.82;7.28;;;;;;;21.28;69.45;101383.88;10105369;28;20074;-69
2021/09/11 12:53:28;;;;;;;8.35;6.63;;;;;;;21.13;69.05;101383.66;10106354;28;20082;-69
2021/09/11 12:58:24;;;;;;;9.70;7.25;;;;;;;20.82;68.86;101379.22;10106549;28;20169;-67
2021/09/11 13:03:21;;;;;;;8.25;5.65;;;;;;;20.84;70.25;101376.03;10108966;28;20518;-67
2021/09/11 13:08:18;;;;;;;7.95;5.40;;;;;;;20.99;69.03;101389.00;10107825;28;20086;-69
2021/09/11 13:13:14;;;;;;;7.57;5.40;;;;;;;20.68;69.06;101390.88;10103823;28;20722;-68
2021/09/11 13:18:10;;;;;;;8.25;5.60;;;;;;;20.48;69.96;101380.97;10108009;28;20047;-67
2021/09/11 13:23:07;;;;;;;7.65;4.75;;;;;;;20.30;71.75;101381.44;10104432;28;20082;-68
2021/09/11 13:28:04;;;;;;;10.05;6.38;;;;;;;20.22;72.62;101385.25;10104550;28;20066;-67
2021/09/11 13:33:00;;;;;;;8.27;6.15;;;;;;;20.14;72.55;101378.78;10103901;28;20089;-69
2021/09/11 13:37:58;;;;;;;9.30;6.03;;;;;;;20.10;73.39;101382.66;10104503;28;20145;-69
2021/09/11 13:42:55;;;;;;;7.72;5.65;;;;;;;20.09;72.41;101383.81;10105319;28;20085;-68
2021/09/11 13:48:11;;;;;;;7.70;5.78;;;;;;;20.07;72.81;101386.16;10100307;28;20043;-68
2021/09/11 13:53:08;;;;;;;10.43;6.18;;;;;;;20.06;72.48;101387.31;10097183;28;20558;-69
2021/09/11 13:58:04;;;;;;;7.43;5.60;;;;;;;20.13;72.93;101404.13;10106611;28;20138;-68
2021/09/11 14:03:01;;;;;;;12.15;7.68;;;;;;;20.21;71.69;101389.19;10100143;28;20101;-65
2021/09/11 14:07:58;;;;;;;9.00;7.07;;;;;;;20.42;70.45;101399.09;10100542;28;20043;-68
2021/09/11 14:12:55;;;;;;;9.52;6.60;;;;;;;20.69;69.74;101386.91;10098217;28;20078;-68
2021/09/11 14:17:51;;;;;;;12.93;7.53;;;;;;;20.42;70.81;101388.00;10104818;28;20066;-68
2021/09/11 14:22:50;;;;;;;10.52;7.18;;;;;;;20.56;69.84;101402.16;10102658;28;20502;-68
2021/09/11 14:27:47;;;;;;;11.15;7.82;;;;;;;20.45;70.84;101390.06;10103844;28;20055;-67
2021/09/11 14:32:44;;;;;;;10.27;8.45;;;;;;;20.37;71.72;101392.66;10103246;28;20043;-67
2021/09/11 14:37:42;;;;;;;13.77;8.55;;;;;;;20.13;71.19;101388.25;10104926;28;20043;-68
2021/09/11 14:42:39;;;;;;;14.02;9.45;;;;;;;20.08;72.42;101390.53;10109157;28;20538;-69
2021/09/11 14:47:46;;;;;;;9.52;8.10;;;;;;;20.05;73.70;101396.81;10116773;28;20067;-68
2021/09/11 14:52:52;;;;;;;12.45;8.73;;;;;;;19.89;73.76;101406.03;10111662;28;20573;-67
2021/09/11 14:57:50;;;;;;;14.85;10.80;;;;;;;19.67;76.72;101415.03;10110101;28;20050;-69
2021/09/11 15:02:47;;;;;;;17.27;12.40;;;;;;;19.51;77.23;101412.28;10107354;28;20046;-68
2021/09/11 15:07:46;;;;;;;17.88;11.98;;;;;;;19.43;76.96;101416.88;10112390;28;20081;-69
2021/09/11 15:12:43;;;;;;;15.25;12.90;;;;;;;19.41;77.43;101413.66;10104128;28;20570;-70
2021/09/11 15:17:41;;;;;;;16.48;12.55;;;;;;;19.40;78.49;101400.16;10102839;28;20082;-70
2021/09/11 15:22:39;;;;;;;15.05;12.85;;;;;;;19.41;79.48;101408.13;10109672;28;20105;-71
2021/09/11 15:27:39;;;;;;;16.15;12.07;;;;;;;19.44;79.94;101407.38;10105204;28;20078;-68
2021/09/11 15:32:36;;;;;;;15.60;13.60;;;;;;;19.47;80.19;101406.69;10113081;28;20057;-70
2021/09/11 15:37:33;;;;;;;17.50;13.27;;;;;;;19.42;80.35;101408.91;10106374;28;20515;-66
2021/09/11 15:42:30;;;;;;;19.50;14.98;;;;;;;19.29;81.17;101411.81;10108431;28;20065;-67
2021/09/11 15:47:26;;;;;;;23.90;17.63;;;;;;;18.97;84.23;101422.13;10105643;28;20077;-68
2021/09/11 15:52:23;;;;;;;22.73;19.17;;;;;;;18.80;85.84;101405.84;10101458;28;20051;-67
2021/09/11 15:57:19;;;;;;;20.08;17.95;;;;;;;18.79;86.64;101405.06;10103630;28;20062;-68
2021/09/11 16:02:16;;;;;;;23.23;20.90;;;;;;;18.86;86.43;101410.78;10106566;28;20089;-69
2021/09/11 16:07:13;;;;;;;22.35;19.95;;;;;;;18.87;87.32;101417.13;10104535;28;20426;-69
2021/09/11 16:12:10;;;;;;;23.15;20.60;;;;;;;18.80;87.11;101416.94;10108872;28;20762;-68
2021/09/11 16:17:07;;;;;;;23.17;20.05;;;;;;;18.78;87.30;101413.75;10104551;28;20133;-68
2021/09/11 16:22:05;;;;;;;23.05;20.27;;;;;;;18.79;nan;101409.78;10106848;28;20526;-68
2021/09/11 16:27:02;;;;;;;25.23;20.33;;;;;;;18.81;87.87;101407.47;10104687;28;20059;-68
2021/09/11 16:31:58;;;;;;;23.67;19.88;;;;;;;18.82;88.01;101403.53;10111763;28;20554;-69
2021/09/11 16:36:55;;;;;;;25.52;21.75;;;;;;;18.77;87.43;101403.81;10108570;28;20105;-69
2021/09/11 16:41:53;;;;;;;22.73;20.15;;;;;;;18.75;87.58;101400.56;10110029;28;20050;-69
2021/09/11 16:46:49;;;;;;;24.80;19.65;;;;;;;18.74;87.95;101401.72;10097515;28;20134;-68
2021/09/11 16:51:46;;;;;;;24.73;21.90;;;;;;;18.70;87.92;101413.53;10108818;28;20050;-68
2021/09/11 16:56:42;;;;;;;23.00;20.55;;;;;;;18.68;88.02;101426.94;10104767;28;20137;-69
2021/09/11 17:01:39;;;;;;;24.75;21.90;;;;;;;18.59;88.54;101423.53;10102014;28;20047;-69
2021/09/11 17:06:36;;;;;;;22.48;19.33;;;;;;;18.65;88.41;101427.63;10109553;28;20050;-68
2021/09/11 17:11:32;;;;;;;23.33;20.92;;;;;;;18.65;88.80;101416.53;10104441;28;20417;-68
2021/09/11 17:16:29;;;;;;;25.38;22.33;;;;;;;18.64;88.83;101426.03;10108861;28;20093;-69
2021/09/11 17:21:25;;;;;;;22.70;20.35;;;;;;;18.67;88.97;101424.50;10098955;28;20047;-68
2021/09/11 17:26:22;;;;;;;23.40;20.40;;;;;;;18.66;88.34;101418.16;10093926;28;20150;-68
2021/09/11 17:31:19;;;;;;;26.10;20.80;;;;;;;18.60;88.48;101419.56;10100217;28;20070;-69
2021/09/11 17:36:15;;;;;;;22.23;19.30;;;;;;;18.65;88.69;101421.28;10096780;28;20144;-69
2021/09/11 17:41:12;;;;;;;24.30;19.25;;;;;;;18.60;88.47;101416.81;10098095;28;20082;-68
2021/09/11 17:46:09;;;;;;;20.05;17.38;;;;;;;18.61;87.60;101420.38;10099879;28;20077;-69
2021/09/11 17:51:06;;;;;;;19.60;17.40;;;;;;;18.61;87.93;101420.38;10099610;28;20051;-68
2021/09/11 17:56:03;;;;;;;19.38;16.83;;;;;;;18.60;87.27;101419.56;10100910;28;20099;-69
2021/09/11 18:00:59;;;;;;;20.38;16.30;;;;;;;18.60;86.35;101419.56;10097963;28;20419;-69
2021/09/11 18:05:56;;;;;;;18.73;15.75;;;;;;;18.55;86.53;101433.69;10100631;28;20419;-68
2021/09/11 18:10:53;;;;;;;19.42;15.63;;;;;;;18.59;86.48;101426.28;10099513;28;20047;-68
2021/09/11 18:15:49;;;;;;;21.75;16.05;;;;;;;18.58;87.42;101432.97;10099561;28;20459;-68
2021/09/11 18:20:46;;;;;;;21.10;16.73;;;;;;;18.54;86.75;101426.53;10097149;28;20046;-69
2021/09/11 18:25:42;;;;;;;21.52;17.23;;;;;;;18.48;86.63;101422.44;10106474;28;20066;-69
2021/09/11 18:30:39;;;;;;;20.08;16.90;;;;;;;18.45;87.24;101428.66;10105930;28;20047;-69
2021/09/11 18:35:36;;;;;;;18.90;16.02;;;;;;;18.50;87.12;101431.19;10086585;28;20047;-67
2021/09/11 18:40:32;;;;;;;18.77;16.15;;;;;;;18.51;87.43;101430.00;10090700;28;20567;-68
2021/09/11 18:45:29;;;;;;;21.08;17.55;;;;;;;18.50;87.23;101436.72;10080318;28;20073;-68
2021/09/11 18:50:26;;;;;;;17.75;14.77;;;;;;;18.50;86.77;101439.50;10099974;28;20788;-66
2021/09/11 18:55:22;;;;;;;23.30;17.48;;;;;;;18.56;87.61;101451.09;10095355;28;20070;-66
2021/09/11 19:00:19;;;;;;;20.42;16.90;;;;;;;18.54;87.38;101443.13;10108103;28;20491;-67
2021/09/11 19:05:16;;;;;;;19.75;16.88;;;;;;;18.49;86.88;101446.19;10098177;28;20066;-69
2021/09/11 19:10:12;;;;;;;23.95;19.23;;;;;;;18.46;87.73;101446.91;10103597;28;20051;-66
2021/09/11 19:15:12;;;;;;;23.10;19.60;;;;;;;18.47;87.99;101442.94;10101628;28;20055;-69
2021/09/11 19:20:10;;;;;;;25.40;20.45;;;;;;;18.45;88.57;101448.03;10100702;28;20154;-69
2021/09/11 19:25:08;;;;;;;25.58;20.60;;;;;;;18.46;89.15;101444.13;10111487;28;20053;-68
2021/09/11 19:30:06;;;;;;;26.52;21.25;;;;;;;18.46;89.40;101457.97;10106940;28;20101;-69
2021/09/11 19:35:04;;;;;;;28.65;22.75;;;;;;;18.45;89.77;101453.56;10103326;28;20190;-68
2021/09/11 19:40:00;;;;;;;24.42;21.25;;;;;;;18.45;89.40;101450.81;10102653;28;20130;-68
2021/09/11 19:44:57;;;;;;;28.83;21.83;;;;;;;18.39;89.58;101455.00;10106613;28;20073;-68
2021/09/11 19:49:53;;;;;;;24.85;20.63;;;;;;;18.37;89.79;101449.81;10105536;28;20082;-69
2021/09/11 19:54:50;;;;;;;27.02;21.25;;;;;;;18.40;90.01;101443.56;10113842;28;20503;-65
2021/09/11 19:59:46;;;;;;;25.55;19.85;;;;;;;18.42;90.45;101451.53;10107538;28;20086;-67
2021/09/11 20:04:42;;;;;;;27.02;20.75;;;;;;;18.42;89.68;101457.06;10107096;28;20150;-68
2021/09/11 20:09:39;;;;;;;25.08;20.52;;;;;;;18.45;89.58;101450.81;10110847;28;20049;-69
2021/09/11 20:14:35;;;;;;;29.00;19.48;;;;;;;18.47;89.23;101456.78;10108858;28;20097;-69
2021/09/11 20:19:33;;;;;;;22.20;18.48;;;;;;;18.47;88.90;101456.78;10105933;28;20085;-68
2021/09/11 20:24:29;;;;;;;26.63;19.15;;;;;;;18.47;88.61;101454.03;10100159;28;20049;-68
2021/09/11 20:29:26;;;;;;;26.17;18.92;;;;;;;18.43;87.97;101458.69;10103049;28;20074;-66
2021/09/11 20:34:22;;;;;;;22.95;18.52;;;;;;;18.44;88.26;101460.28;10103292;28;20507;-67
2021/09/11 20:39:19;;;;;;;24.13;19.10;;;;;;;18.43;88.29;101458.69;10108606;28;20134;-69
2021/09/11 20:44:15;;;;;;;25.75;18.90;;;;;;;18.39;89.37;101453.03;10100157;28;20133;-69
2021/09/11 20:49:12;;;;;;;22.90;18.83;;;;;;;18.35;89.42;101462.41;10106134;28;20101;-68
2021/09/11 20:54:08;;;;;;;25.65;19.40;;;;;;;18.30;89.66;101455.16;10085600;28;20137;-67
2021/09/11 20:59:05;;;;;;;28.83;20.00;;;;;;;18.29;90.01;101457.13;10092678;28;20078;-69
2021/09/11 21:04:06;;;;;;;27.40;20.73;;;;;;;18.33;89.97;101461.94;10106823;28;20159;-69
2021/09/11 21:09:03;;;;;;;21.17;18.98;;;;;;;18.30;89.82;101455.16;10107318;28;20081;-69
2021/09/11 21:14:00;;;;;;;26.27;18.75;;;;;;;18.28;89.78;101452.72;10092505;28;20813;-67
2021/09/11 21:18:58;;;;;;;23.20;19.33;;;;;;;18.27;89.72;101455.88;10099371;28;20525;-69
2021/09/11 21:23:54;;;;;;;23.70;20.40;;;;;;;18.18;89.99;101458.78;10096984;28;20675;-70
2021/09/11 21:28:51;;;;;;;24.92;20.70;;;;;;;18.20;90.17;101466.75;10107345;28;20142;-71
2021/09/11 21:33:47;;;;;;;25.52;18.98;;;;;;;18.19;90.34;101465.13;10104722;28;20103;-69
2021/09/11 21:38:44;;;;;;;25.27;20.05;;;;;;;18.15;90.37;101465.03;10099814;28;20074;-68
2021/09/11 21:43:41;;;;;;;26.25;20.02;;;;;;;18.11;90.56;101464.09;10099318;28;20533;-69
2021/09/11 21:48:38;;;;;;;26.42;22.08;;;;;;;18.07;91.00;101469.53;10094884;28;20110;-71
2021/09/11 21:53:34;;;;;;;29.42;22.63;;;;;;;18.09;91.26;101474.72;10078010;28;20105;-70
2021/09/11 21:58:32;;;;;;;30.90;22.55;;;;;;;18.11;91.86;101479.91;10089652;28;20070;-70
2021/09/11 22:03:30;;;;;;;26.63;22.85;;;;;;;18.10;91.72;101476.31;10088818;28;20119;-72
2021/09/11 22:08:27;;;;;;;26.80;21.80;;;;;;;18.10;91.91;101473.56;10088174;28;20055;-70
2021/09/11 22:13:23;;;;;;;26.75;22.48;;;;;;;18.08;91.83;101481.44;10086924;28;20116;-70